EGHI/SOU METAR and TAF weather

Enter ICAO airport designator
Station Type Date Time Source
EGHI METAR 2022/06/27 08:50 UTC NOAA

EGHI 270850Z 21007KT 9000 -RA SCT011 BKN028 13/12 Q1016


Station Type Date Time Source
EGHI Decoded METAR 2022/06/27 08:50 UTC NOAA

Southampton / Weather Centre, United Kingdom (EGHI) 50-54N 001-24W 0M
Jun 27, 2022 - 04:50 AM EDT / 2022.06.27 0850 UTC
Wind: from the SSW (210 degrees) at 8 MPH (7 KT):0
Visibility: 5 mile(s):0
Sky conditions: mostly cloudy
Weather: light rain
Temperature: 55 F (13 C)
Dew Point: 53 F (12 C)
Relative Humidity: 93%
Pressure (altimeter): 30.00 in. Hg (1016 hPa)
ob: EGHI 270850Z 21007KT 9000 -RA SCT011 BKN028 13/12 Q1016
cycle: 9

Station Type Date Time Source
EGHI TAF 2022/01/20 18:37 UTC NOAA

TAF EGHI 201729Z 2018/2123 CNL

Example: see airport list